Beesel, Netherlands
Current Conditions -  °F | °C
As of 3:20 PM on Wednesday 26 Nov 2014 (Local Time) from EDLN Reporting Station
Broken Clouds Broken Clouds  
Wind Chill: 37°   Ceiling: 9000
Heat Index: 43°   Visibility: 4mi
Dew Point: 37°   Wind: 12mph
Humidity: 81%   Direction: 140°SE
Pressure: 29.94"   Gusts: NA
Location:  51.27°N, 6.04°E
Report Text: EDLN 261420Z 14010KT 100V170 6000 SCT020 BKN090 06/03 Q1014 RMK ATIS P
Loading
Personal Weather Stations






























Interactive Weather Map New forecast layout! Learn more

10-Day Weather Forecast

Advertisements
Track Severe Weather on mobile